Flight Track Log - Related Links

Times and Time Zones

All times are in EDT time to prevent confusion due to time zone crossing. See the B-2086 flight status page for this flight to view local times or setup timezone preferences in your user account.

Time Position Orientation Groundspeed Altitude Reporting Facility
EDT Latitude Longitude Course Direction KTS MPH feet Rate Location/Type
Fri 03:12:00 PM 40.4392 116.1805 319° Northwest  Level Estimated
Fri 03:13:00 PM 40.5287 116.0788 319° Northwest  Level Estimated
Fri 03:14:00 PM 40.6181 115.9768 319° Northwest  Level Estimated
Fri 03:15:00 PM 40.7075 115.8745 319° Northwest  Level Estimated
Fri 03:16:00 PM 40.7968 115.7720 319° Northwest  Level Estimated
Fri 03:17:00 PM 40.8859 115.6692 319° Northwest  Level Estimated
Fri 03:18:00 PM 40.9750 115.5661 319° Northwest  Level Estimated
Fri 03:19:00 PM 41.0640 115.4628 319° Northwest  Level Estimated
Fri 03:20:00 PM 41.1529 115.3592 319° Northwest  Level Estimated
Fri 03:21:00 PM 41.2417 115.2552 319° Northwest  Level Estimated
Fri 03:22:00 PM 41.3304 115.1510 319° Northwest  Level Estimated
Fri 03:23:00 PM 41.4191 115.0466 319° Northwest  Level Estimated
Fri 03:24:00 PM 41.5076 114.9418 318° Northwest  Level Estimated
Fri 03:25:00 PM 41.5960 114.8367 318° Northwest  Level Estimated
Fri 03:26:00 PM 41.6844 114.7314 318° Northwest  Level Estimated
Fri 03:27:00 PM 41.7726 114.6258 318° Northwest  Level Estimated
Fri 03:28:00 PM 41.8607 114.5199 318° Northwest  Level Estimated
Fri 03:29:00 PM 41.9488 114.4137 318° Northwest  Level Estimated
Fri 03:30:00 PM 42.0367 114.3071 318° Northwest  Level Estimated
Fri 03:31:00 PM 42.1246 114.2003 318° Northwest  Level Estimated
Fri 03:32:00 PM 42.2123 114.0932 318° Northwest  Level Estimated
Fri 03:33:00 PM 42.3000 113.9858 318° Northwest  Level Estimated
Fri 03:34:00 PM 42.3875 113.8782 318° Northwest  Level Estimated
Fri 03:35:00 PM 42.4750 113.7701 318° Northwest  Level Estimated
Fri 03:36:00 PM 42.5623 113.6618 318° Northwest  Level Estimated
Fri 03:37:00 PM 42.6496 113.5533 318° Northwest  Level Estimated
Fri 03:38:00 PM 42.7367 113.4443 317° Northwest  Level Estimated
Fri 03:39:00 PM 42.8237 113.3351 317° Northwest  Level Estimated
Fri 03:40:00 PM 42.9107 113.2256 317° Northwest  Level Estimated
Fri 03:41:00 PM 42.9975 113.1158 317° Northwest  Level Estimated
Fri 03:42:00 PM 43.0842 113.0056 317° Northwest  Level Estimated
Fri 03:43:00 PM 43.1708 112.8952 317° Northwest  Level Estimated
Fri 03:44:00 PM 43.2574 112.7844 317° Northwest  Level Estimated
Fri 03:45:00 PM 43.3438 112.6733 317° Northwest  Level Estimated
Fri 03:46:00 PM 43.4300 112.5619 317° Northwest  Level Estimated
Fri 03:47:00 PM 43.5162 112.4502 317° Northwest  Level Estimated
Fri 03:48:00 PM 43.6023 112.3382 317° Northwest  Level Estimated
Fri 03:49:00 PM 43.6883 112.2259 317° Northwest  Level Estimated
Fri 03:50:00 PM 43.7741 112.1132 317° Northwest  Level Estimated
Fri 03:51:00 PM 43.8599 112.0002 316° Northwest  Level Estimated
Fri 03:52:00 PM 43.9455 111.8868 316° Northwest  Level Estimated
Fri 03:53:00 PM 44.0310 111.7732 316° Northwest  Level Estimated
Fri 03:54:00 PM 44.1165 111.6592 316° Northwest  Level Estimated
Fri 03:55:00 PM 44.2017 111.5449 316° Northwest  Level Estimated
Fri 03:56:00 PM 44.2869 111.4303 316° Northwest  Level Estimated
Fri 03:57:00 PM 44.3720 111.3153 316° Northwest  Level Estimated
Fri 03:58:00 PM 44.4569 111.2000 316° Northwest  Level Estimated
Fri 03:59:00 PM 44.5418 111.0843 316° Northwest  Level Estimated
Fri 04:00:00 PM 44.6265 110.9684 316° Northwest  Level Estimated
Fri 04:01:00 PM 44.7111 110.8520 316° Northwest  Level Estimated
Fri 04:02:00 PM 44.7956 110.7354 316° Northwest  Level Estimated
Fri 04:03:00 PM 44.8799 110.6184 316° Northwest  Level Estimated
Fri 04:04:00 PM 44.9642 110.5010 315° West  Level Estimated
Fri 04:05:00 PM 45.0483 110.3833 315° West  Level Estimated
Fri 04:06:00 PM 45.1323 110.2653 315° West  Level Estimated
Fri 04:07:00 PM 45.2162 110.1469 315° West  Level Estimated
Fri 04:08:00 PM 45.2999 110.0282 315° West  Level Estimated
Fri 04:09:00 PM 45.3835 109.9091 315° West  Level Estimated
Fri 04:10:00 PM 45.4671 109.7896 315° West  Level Estimated
Fri 04:11:00 PM 45.5504 109.6699 315° West  Level Estimated
Fri 04:12:00 PM 45.6337 109.5497 315° West  Level Estimated
Fri 04:13:00 PM 45.7168 109.4292 315° West  Level Estimated
Fri 04:14:00 PM 45.7998 109.3083 315° West  Level Estimated
Fri 04:15:00 PM 45.8827 109.1871 315° West  Level Estimated
Fri 04:16:00 PM 45.9655 109.0655 314° West  Level Estimated
Fri 04:17:00 PM 46.0481 108.9436 314° West  Level Estimated
Fri 04:18:00 PM 46.1306 108.8212 314° West  Level Estimated
Fri 04:19:00 PM 46.2129 108.6986 314° West  Level Estimated
Fri 04:20:00 PM 46.2952 108.5755 314° West  Level Estimated
Fri 04:21:00 PM 46.3773 108.4521 314° West  Level Estimated
Fri 04:22:00 PM 46.4592 108.3283 314° West  Level Estimated
Fri 04:23:00 PM 46.5410 108.2041 314° West  Level Estimated
Fri 04:24:00 PM 46.6227 108.0796 314° West  Level Estimated
Fri 04:25:00 PM 46.7043 107.9547 314° West  Level Estimated
Fri 04:26:00 PM 46.7857 107.8294 314° West  Level Estimated
Fri 04:27:00 PM 46.8670 107.7037 313° West  Level Estimated
Fri 04:28:00 PM 46.9481 107.5777 313° West  Level Estimated
Fri 04:29:00 PM 47.0291 107.4512 313° West  Level Estimated
Fri 04:30:00 PM 47.1100 107.3244 313° West  Level Estimated
Fri 04:31:00 PM 47.1907 107.1972 313° West  Level Estimated
Fri 04:32:00 PM 47.2713 107.0696 313° West  Level Estimated
Fri 04:33:00 PM 47.3518 106.9416 313° West  Level Estimated
Fri 04:34:00 PM 47.4321 106.8133 313° West  Level Estimated
Fri 04:35:00 PM 47.5122 106.6845 313° West  Level Estimated
Fri 04:36:00 PM 47.5922 106.5553 313° West  Level Estimated
Fri 04:37:00 PM 47.6721 106.4258 313° West  Level Estimated
Fri 04:38:00 PM 47.7518 106.2958 312° West  Level Estimated
Fri 04:39:00 PM 47.8314 106.1655 312° West  Level Estimated
Fri 04:40:00 PM 47.9108 106.0347 312° West  Level Estimated
Fri 04:41:00 PM 47.9901 105.9036 312° West  Level Estimated
Fri 04:42:00 PM 48.0692 105.7720 312° West  Level Estimated
Fri 04:43:00 PM 48.1482 105.6401 312° West  Level Estimated
Fri 04:44:00 PM 48.2270 105.5077 312° West  Level Estimated
Fri 04:45:00 PM 48.3057 105.3749 312° West  Level Estimated
Fri 04:46:00 PM 48.3842 105.2418 312° West  Level Estimated
Fri 04:47:00 PM 48.4626 105.1082 312° West  Level Estimated
Fri 04:48:00 PM 48.5408 104.9742 311° West  Level Estimated
Fri 04:49:00 PM 48.6188 104.8398 311° West  Level Estimated
Fri 04:50:00 PM 48.6967 104.7049 311° West  Level Estimated
Fri 04:51:00 PM 48.7745 104.5697 311° West  Level Estimated
Fri 04:52:00 PM 48.8520 104.4340 311° West  Level Estimated
Fri 04:53:00 PM 48.9295 104.2979 311° West  Level Estimated
Fri 04:54:00 PM 49.0067 104.1614 311° West  Level Estimated
Fri 04:55:00 PM 49.0838 104.0245 311° West  Level Estimated
Fri 04:56:00 PM 49.1608 103.8871 311° West  Level Estimated
Fri 04:57:00 PM 49.2375 103.7493 311° West  Level Estimated
Fri 04:58:00 PM 49.3141 103.6111 310° West  Level Estimated
Fri 04:59:00 PM 49.3906 103.4725 310° West  Level Estimated
Fri 05:00:00 PM 49.4669 103.3334 310° West  Level Estimated
Fri 05:01:00 PM 49.5430 103.1939 310° West  Level Estimated
Fri 05:02:00 PM 49.6189 103.0539 310° West  Level Estimated
Fri 05:03:00 PM 49.6947 102.9135 310° West  Level Estimated
Fri 05:04:00 PM 49.7703 102.7727 310° West  Level Estimated
Fri 05:05:00 PM 49.8457 102.6314 310° West  Level Estimated
Fri 05:06:00 PM 49.9210 102.4897 310° West  Level Estimated
Fri 05:07:00 PM 49.9960 102.3476 309° West  Level Estimated
Fri 05:08:00 PM 50.0709 102.2050 309° West  Level Estimated
Fri 05:09:00 PM 50.1457 102.0620 309° West  Level Estimated
Fri 05:10:00 PM 50.2202 101.9185 309° West  Level Estimated
Fri 05:11:00 PM 50.2946 101.7746 309° West  Level Estimated
Fri 05:12:00 PM 50.3688 101.6302 309° West  Level Estimated
Fri 05:13:00 PM 50.4428 101.4853 309° West  Level Estimated
Fri 05:14:00 PM 50.5167 101.3400 309° West  Level Estimated
Fri 05:15:00 PM 50.5903 101.1943 309° West  Level Estimated
Fri 05:16:00 PM 50.6638 101.0481 308° West  Level Estimated
Fri 05:17:00 PM 50.7371 100.9015 308° West  Level Estimated
Fri 05:18:00 PM 50.8102 100.7543 308° West  Level Estimated
Fri 05:19:00 PM 50.8832 100.6068 308° West  Level Estimated
Fri 05:20:00 PM 50.9559 100.4587 308° West  Level Estimated
Fri 05:21:00 PM 51.0285 100.3102 308° West  Level Estimated
Fri 05:22:00 PM 51.1008 100.1612 308° West  Level Estimated
Fri 05:23:00 PM 51.1730 100.0118 308° West  Level Estimated
Fri 05:24:00 PM 51.2450 99.8619 308° West  Level Estimated
Fri 05:25:00 PM 51.3167 99.7115 307° West  Level Estimated
Fri 05:26:00 PM 51.3884 99.5607 307° West  Level Estimated
Fri 05:27:00 PM 51.4598 99.4094 307° West  Level Estimated
Fri 05:28:00 PM 51.5310 99.2576 307° West  Level Estimated
Fri 05:29:00 PM 51.6020 99.1053 307° West  Level Estimated
Fri 05:30:00 PM 51.6728 98.9526 307° West  Level Estimated
Fri 05:31:00 PM 51.7434 98.7994 307° West  Level Estimated
Fri 05:32:00 PM 51.8138 98.6457 307° West  Level Estimated
Fri 05:33:00 PM 51.8840 98.4915 306° West  Level Estimated
Fri 05:34:00 PM 51.9540 98.3369 306° West  Level Estimated
Fri 05:35:00 PM 52.0238 98.1817 306° West  Level Estimated
Fri 05:36:00 PM 52.0934 98.0261 306° West  Level Estimated
Fri 05:37:00 PM 52.1628 97.8700 306° West  Level Estimated
Fri 05:38:00 PM 52.2320 97.7134 306° West  Level Estimated
Fri 05:39:00 PM 52.3010 97.5563 306° West  Level Estimated
Fri 05:40:00 PM 52.3698 97.3988 306° West  Level Estimated
Fri 05:41:00 PM 52.4383 97.2407 305° West  Level Estimated
Fri 05:42:00 PM 52.5067 97.0821 305° West  Level Estimated
Fri 05:43:00 PM 52.5748 96.9231 305° West  Level Estimated
Fri 05:44:00 PM 52.6427 96.7635 305° West  Level Estimated
Fri 05:45:00 PM 52.7105 96.6035 305° West  Level Estimated
Fri 05:46:00 PM 52.7780 96.4430 305° West  Level Estimated
Fri 05:47:00 PM 52.8452 96.2819 305° West  Level Estimated
Fri 05:48:00 PM 52.9123 96.1204 305° West  Level Estimated
Fri 05:49:00 PM 52.9791 95.9584 304° West  Level Estimated
Fri 05:50:00 PM 53.0458 95.7958 304° West  Level Estimated
Fri 05:51:00 PM 53.1122 95.6328 304° West  Level Estimated
Fri 05:52:00 PM 53.1783 95.4693 304° West  Level Estimated
Fri 05:53:00 PM 53.2443 95.3052 304° West  Level Estimated
Fri 05:54:00 PM 53.3100 95.1407 304° West  Level Estimated
Fri 05:55:00 PM 53.3755 94.9756 304° West  Level Estimated
Fri 05:56:00 PM 53.4408 94.8101 304° West  Level Estimated
Fri 05:57:00 PM 53.5058 94.6440 303° West  Level Estimated
Fri 05:58:00 PM 53.5706 94.4774 303° West  Level Estimated
Fri 05:59:00 PM 53.6352 94.3103 303° West  Level Estimated
Fri 06:00:00 PM 53.6995 94.1427 303° West  Level Estimated
Fri 06:01:00 PM 53.7636 93.9746 303° West  Level Estimated
Fri 06:02:00 PM 53.8275 93.8060 303° West  Level Estimated
Fri 06:03:00 PM 53.8911 93.6368 303° West  Level Estimated
Fri 06:04:00 PM 53.9545 93.4672 302° West  Level Estimated
Fri 06:05:00 PM 54.0177 93.2970 302° West  Level Estimated
Fri 06:06:00 PM 54.0806 93.1263 302° West  Level Estimated
Fri 06:07:00 PM 54.1433 92.9551 302° West  Level Estimated
Fri 06:08:00 PM 54.2057 92.7834 302° West  Level Estimated
Fri 06:09:00 PM 54.2679 92.6111 302° West  Level Estimated
Fri 06:10:00 PM 54.3298 92.4384 302° West  Level Estimated
Fri 06:11:00 PM 54.3915 92.2651 301° West  Level Estimated
Fri 06:12:00 PM 54.4530 92.0913 301° West  Level Estimated
Fri 06:13:00 PM 54.5141 91.9169 301° West  Level Estimated
Fri 06:14:00 PM 54.5751 91.7421 301° West  Level Estimated
Fri 06:15:00 PM 54.6358 91.5667 301° West  Level Estimated
Fri 06:16:00 PM 54.6962 91.3908 301° West  Level Estimated
Fri 06:17:00 PM 54.7564 91.2144 301° West  Level Estimated
Fri 06:18:00 PM 54.8163 91.0375 300° West  Level Estimated
Fri 06:19:00 PM 54.8760 90.8600 300° West  Level Estimated
Fri 06:20:00 PM 54.9354 90.6820 300° West  Level Estimated
Fri 06:21:00 PM 54.9945 90.5035 300° West  Level Estimated
Fri 06:22:00 PM 55.0534 90.3245 300° West  Level Estimated
Fri 06:23:00 PM 55.1120 90.1449 300° West  Level Estimated
Fri 06:24:00 PM 55.1704 89.9648 300° West  Level Estimated
Fri 06:25:00 PM 55.2285 89.7842 299° West  Level Estimated
Fri 06:26:00 PM 55.2863 89.6030 299° West  Level Estimated
Fri 06:27:00 PM 55.3438 89.4213 299° West  Level Estimated
Fri 06:28:00 PM 55.4011 89.2391 299° West  Level Estimated
Fri 06:28:51 PM 53.7630 91.3440 299° West 401 461 32,000  Level FlightAware ADS-B
Fri 06:29:00 PM 55.4581 89.0564 299° West  Level Estimated
Fri 06:29:26 PM 53.8010 91.2550 306° West 401 461 32,000  Level FlightAware ADS-B
Fri 06:30:11 PM 53.8450 91.1480 305° West 401 461 32,000  Level FlightAware ADS-B
Fri 06:30:41 PM 53.8720 91.0820 305° West 401 461 32,000  Level FlightAware ADS-B
Fri 06:31:26 PM 53.9270 90.9550 306° West 32,000  Level FlightAware ADS-B
Fri 06:32:06 PM 53.9700 90.8520 305° West 401 461 32,000  Level FlightAware ADS-B
Fri 06:32:51 PM 54.0230 90.7250 305° West 402 463 32,000  Level FlightAware ADS-B
Fri 06:33:46 PM 54.0800 90.5870 305° West 402 463 32,000  Level FlightAware ADS-B
Fri 06:34:21 PM 54.1170 90.4960 305° West 401 461 32,000  Level FlightAware ADS-B
Fri 06:35:26 PM 54.1810 90.3390 305° West 401 461 32,000  Level FlightAware ADS-B
Fri 06:36:06 PM 54.2280 90.2240 305° West 401 461 32,000  Level FlightAware ADS-B
Fri 06:37:01 PM 54.2870 90.0780 305° West 402 463 32,000  Level FlightAware ADS-B
Fri 06:37:46 PM 54.3310 89.9670 304° West 402 463 32,000  Level FlightAware ADS-B
Fri 06:40:00 PM 54.4631 89.5739 300° West  Level Estimated
Fri 06:41:00 PM 54.5218 89.3970 300° West  Level Estimated
Fri 06:41:41 PM 54.5820 89.3360 300° West 406 467 32,000  Level FlightAware ADS-B
Fri 06:42:21 PM 54.6230 89.2330 305° West 406 467 32,000  Level FlightAware ADS-B
Fri 06:43:06 PM 54.6700 89.1100 303° West 405 466 32,000  Level FlightAware ADS-B
Fri 06:43:46 PM 54.7120 89.0020 304° West 405 466 32,000  Level FlightAware ADS-B
Fri 06:44:31 PM 54.7590 88.8820 304° West 405 466 32,000  Level FlightAware ADS-B
Fri 06:45:01 PM 54.7860 88.8110 303° West 406 467 32,000  Level FlightAware ADS-B
Fri 06:47:00 PM 54.8998 88.4546 299° West  Level Estimated
Fri 06:47:31 PM 54.9400 88.4070 299° West 404 465 32,000  Level FlightAware ADS-B
Fri 06:48:16 PM 54.9890 88.2770 303° West 405 466 32,000  Level FlightAware ADS-B
Fri 06:48:56 PM 55.0300 88.1690 304° West 405 466 32,000  Level FlightAware ADS-B
Fri 06:49:36 PM 55.0710 88.0590 303° West 405 466 32,000  Level FlightAware ADS-B
Fri 06:50:21 PM 55.1150 87.9420 303° West 405 466 32,000  Level FlightAware ADS-B
Fri 06:51:01 PM 55.1580 87.8250 303° West 405 466 32,000  Level FlightAware ADS-B
Fri 06:51:41 PM 55.1980 87.7160 303° West 403 464 32,000  Level FlightAware ADS-B
Fri 06:52:26 PM 55.2430 87.5940 303° West 403 464 32,000  Level FlightAware ADS-B
Fri 06:53:06 PM 55.2840 87.4820 303° West 404 465 32,000  Level FlightAware ADS-B
Fri 06:53:51 PM 55.3270 87.3610 302° West 402 463 32,000  Level FlightAware ADS-B
Fri 06:54:31 PM 55.3670 87.2510 303° West 402 463 32,000  Level FlightAware ADS-B
Fri 06:55:16 PM 55.4130 87.1240 303° West 402 463 32,000  Level FlightAware ADS-B
Fri 06:55:56 PM 55.4520 87.0140 302° West 402 463 32,000  Level FlightAware ADS-B
Fri 06:56:36 PM 55.4910 86.9030 302° West 403 464 32,000  Level FlightAware ADS-B
Fri 06:57:21 PM 55.5350 86.7810 303° West 404 465 32,000  Level FlightAware ADS-B
Fri 06:58:01 PM 55.5750 86.6660 302° West 404 465 32,000  Level FlightAware ADS-B
Fri 06:58:46 PM 55.6200 86.5390 302° West 405 466 32,000  Level FlightAware ADS-B
Fri 06:59:26 PM 55.6590 86.4270 302° West 405 466 32,000  Level FlightAware ADS-B
Fri 07:00:06 PM 55.6980 86.3150 302° West 405 466 32,000  Level FlightAware ADS-B
Fri 07:00:51 PM 55.7420 86.1880 302° West 405 466 32,000  Level FlightAware ADS-B
Fri 07:01:31 PM 55.7810 86.0730 301° West 405 466 32,000  Level FlightAware ADS-B
Fri 07:02:16 PM 55.8240 85.9490 302° West 405 466 32,000  Level FlightAware ADS-B
Fri 07:02:56 PM 55.8640 85.8320 301° West 405 466 32,000  Level FlightAware ADS-B
Fri 07:03:36 PM 55.9010 85.7220 301° West 406 467 32,000  Level FlightAware ADS-B
Fri 07:04:21 PM 55.9430 85.5970 301° West 406 467 32,000  Level FlightAware ADS-B
Fri 07:05:01 PM 55.9840 85.4710 300° West 406 467 32,000  Level FlightAware ADS-B
Fri 07:05:46 PM 56.0260 85.3400 300° West 407 468 32,000  Level FlightAware ADS-B
Fri 07:06:26 PM 56.0630 85.2240 300° West 407 468 32,000  Level FlightAware ADS-B
Fri 07:07:06 PM 56.1000 85.1070 300° West 407 468 32,000  Level FlightAware ADS-B
Fri 07:07:51 PM 56.1420 84.9760 300° West 407 468 32,000  Level FlightAware ADS-B
Fri 07:08:31 PM 56.1790 84.8580 299° West 409 471 32,000  Level FlightAware ADS-B
Fri 07:09:11 PM 56.2160 84.7400 299° West 409 471 32,000  Level FlightAware ADS-B
Fri 07:09:56 PM 56.2570 84.6070 299° West 410 472 32,000  Level FlightAware ADS-B
Fri 07:10:36 PM 56.2940 84.4890 300° West 409 471 32,000  Level FlightAware ADS-B
Fri 07:11:21 PM 56.3350 84.3550 299° West 409 471 32,000  Level FlightAware ADS-B
Fri 07:12:01 PM 56.3720 84.2370 300° West 409 471 32,000  Level FlightAware ADS-B
Fri 07:12:46 PM 56.4120 84.1040 299° West 409 471 32,000  Level FlightAware ADS-B
Fri 07:13:26 PM 56.4490 83.9830 299° West 410 472 32,000  Level FlightAware ADS-B
Fri 07:14:06 PM 56.4840 83.8640 298° West 409 471 32,000  Level FlightAware ADS-B
Fri 07:14:51 PM 56.5250 83.7290 299° West 410 472 32,000  Level FlightAware ADS-B
Fri 07:15:31 PM 56.5600 83.6110 298° West 408 470 32,000  Level FlightAware ADS-B
Fri 07:16:16 PM 56.6000 83.4760 298° West 408 470 32,000  Level FlightAware ADS-B
Fri 07:16:56 PM 56.6370 83.3530 299° West 409 471 32,000  Level FlightAware ADS-B
Fri 07:17:36 PM 56.6720 83.2340 298° West 409 471 32,000  Level FlightAware ADS-B
Fri 07:18:21 PM 56.7110 83.0990 298° West 409 471 32,000  Level FlightAware ADS-B
Fri 07:19:01 PM 56.7460 82.9790 298° West 409 471 32,000  Level FlightAware ADS-B
Fri 07:19:46 PM 56.7830 82.8510 298° West 407 468 32,000  Level FlightAware ADS-B
Fri 07:20:26 PM 56.8210 82.7190 298° West 406 467 32,000  Level FlightAware ADS-B
Fri 07:21:11 PM 56.8600 82.5830 298° West 406 467 32,000  Level FlightAware ADS-B
Fri 07:21:51 PM 56.8940 82.4610 297° West 406 467 32,000  Level FlightAware ADS-B
Fri 07:22:31 PM 56.9280 82.3410 297° West 407 468 32,000  Level FlightAware ADS-B
Fri 07:23:16 PM 56.9670 82.2050 298° West 406 467 32,000  Level FlightAware ADS-B
Fri 07:23:56 PM 57.0020 82.0810 297° West 406 467 32,000  Level FlightAware ADS-B
Fri 07:24:41 PM 57.0430 81.9480 300° West 406 467 32,000  Level FlightAware ADS-B
Fri 07:25:21 PM 57.0810 81.8300 301° West 405 466 32,000  Level FlightAware ADS-B
Fri 07:26:01 PM 57.1180 81.7140 300° West 404 465 32,000  Level FlightAware ADS-B
Fri 07:26:46 PM 57.1610 81.5790 300° West 404 465 32,000  Level FlightAware ADS-B
Fri 07:27:26 PM 57.1980 81.4600 300° West 403 464 32,000  Level FlightAware ADS-B
Fri 07:28:11 PM 57.2400 81.3280 300° West 403 464 32,000  Level FlightAware ADS-B
Fri 07:28:51 PM 57.2770 81.2090 300° West 404 465 32,000  Level FlightAware ADS-B
Fri 07:29:31 PM 57.3140 81.0900 300° West 403 464 32,000  Level FlightAware ADS-B
Fri 07:30:16 PM 57.3550 80.9560 300° West 404 465 32,000  Level FlightAware ADS-B
Fri 07:30:56 PM 57.3930 80.8350 300° West 404 465 32,000  Level FlightAware ADS-B
Fri 07:31:41 PM 57.4320 80.7060 299° West 404 465 32,000  Level FlightAware ADS-B
Fri 07:32:21 PM 57.4700 80.5820 300° West 405 466 32,000  Level FlightAware ADS-B
Fri 07:33:01 PM 57.5060 80.4610 299° West 404 465 32,000  Level FlightAware ADS-B
Fri 07:33:46 PM 57.5480 80.3240 300° West 404 465 32,000  Level FlightAware ADS-B
Fri 07:34:26 PM 57.5830 80.2060 299° West 405 466 32,000  Level FlightAware ADS-B
Fri 07:35:11 PM 57.6240 80.0680 299° West 404 465 32,000  Level FlightAware ADS-B
Fri 07:35:51 PM 57.6610 79.9450 299° West 405 466 32,000  Level FlightAware ADS-B
Fri 07:36:31 PM 57.6950 79.8280 299° West 405 466 32,000  Level FlightAware ADS-B
Fri 07:37:16 PM 57.7360 79.6870 299° West 405 466 32,000  Level FlightAware ADS-B
Fri 07:37:46 PM 57.7620 79.5960 298° West 404 465 32,000  Level FlightAware ADS-B
Fri 07:38:36 PM 57.8050 79.4460 298° West 404 465 32,000  Level FlightAware ADS-B
Fri 07:39:11 PM 57.8340 79.3450 298° West 405 466 32,000  Level FlightAware ADS-B
Fri 07:40:01 PM 57.8780 79.1880 298° West 405 466 32,000  Level FlightAware ADS-B
Fri 07:40:46 PM 57.9200 79.0410 298° West 404 465 32,000  Level FlightAware ADS-B
Fri 07:41:26 PM 57.9550 78.9150 298° West 405 466 32,000  Level FlightAware ADS-B
Fri 07:42:06 PM 57.9850 78.8020 297° West 405 466 32,000  Level FlightAware ADS-B
Fri 07:42:46 PM 58.0140 78.6950 297° West 405 466 32,000  Level FlightAware ADS-B
Fri 07:43:26 PM 58.0430 78.5880 297° West 405 466 32,000  Level FlightAware ADS-B
Fri 07:44:16 PM 58.0790 78.4540 297° West 405 466 32,000  Level FlightAware ADS-B
Fri 07:44:56 PM 58.1080 78.3460 297° West 405 466 32,000  Level FlightAware ADS-B
Fri 07:45:36 PM 58.1370 78.2390 297° West 405 466 32,000  Level FlightAware ADS-B
Fri 07:46:16 PM 58.1660 78.1310 297° West 405 466 32,000  Level FlightAware ADS-B
Fri 07:46:56 PM 58.1950 78.0240 297° West 405 466 32,000  Level FlightAware ADS-B
Fri 07:47:46 PM 58.2310 77.8890 297° West 405 466 32,000  Level FlightAware ADS-B
Fri 07:48:26 PM 58.2600 77.7810 297° West 405 466 32,000  Level FlightAware ADS-B
Fri 07:49:06 PM 58.2890 77.6730 297° West 405 466 32,000  Level FlightAware ADS-B
Fri 07:49:46 PM 58.3180 77.5650 297° West 405 466 32,000  Level FlightAware ADS-B
Fri 07:50:26 PM 58.3460 77.4570 296° West 405 466 32,000  Level FlightAware ADS-B
Fri 07:51:06 PM 58.3750 77.3490 297° West 405 466 32,000  Level FlightAware ADS-B
Fri 07:53:00 PM 58.4469 76.9423 289° West  Level Estimated
Fri 07:54:00 PM 58.4842 76.7276 288° West  Level Estimated
Fri 07:55:00 PM 58.5211 76.5125 288° West  Level Estimated
Fri 07:56:00 PM 58.5577 76.2969 288° West  Level Estimated
Fri 07:57:00 PM 58.5939 76.0808 288° West  Level Estimated
Fri 07:58:00 PM 58.6298 75.8643 288° West  Level Estimated
Fri 07:59:00 PM 58.6652 75.6474 288° West  Level Estimated
Fri 08:00:00 PM 58.7004 75.4300 287° West  Level Estimated
Fri 08:01:00 PM 58.7351 75.2122 287° West  Level Estimated
Fri 08:02:00 PM 58.7695 74.9939 287° West  Level Estimated
Fri 08:03:00 PM 58.8036 74.7753 287° West  Level Estimated
Fri 08:04:00 PM 58.8372 74.5562 287° West  Level Estimated
Fri 08:05:00 PM 58.8705 74.3366 286° West  Level Estimated
Fri 08:05:21 PM 59.3150 74.5530 286° West 399 459 32,000  Level FlightAware ADS-B
Fri 08:07:11 PM 59.3710 74.1880 287° West 384 442 32,000  Level FlightAware ADS-B
Fri 08:07:56 PM 59.3860 74.0560 283° West 384 442 32,000  Level FlightAware ADS-B
Fri 08:08:41 PM 59.4060 73.8850 283° West 386 444 32,000  Level FlightAware ADS-B
Fri 08:09:26 PM 59.4220 73.7470 283° West 385 443 32,000  Level FlightAware ADS-B
Fri 08:10:06 PM 59.4380 73.6100 283° West 385 443 32,000  Level FlightAware ADS-B
Fri 08:10:51 PM 59.4560 73.4470 282° West 386 444 32,000  Level FlightAware ADS-B
Fri 08:11:31 PM 59.4720 73.3070 283° West 386 444 32,000  Level FlightAware ADS-B
Fri 08:12:11 PM 59.4870 73.1690 282° West 387 445 32,000  Level FlightAware ADS-B
Fri 08:12:56 PM 59.5030 73.0170 282° West 385 443 32,000  Level FlightAware ADS-B
Fri 08:13:36 PM 59.5180 72.8780 282° West 385 443 32,000  Level FlightAware ADS-B
Fri 08:14:16 PM 59.5310 72.7530 282° West 385 443 32,000  Level FlightAware ADS-B
Fri 08:15:01 PM 59.5490 72.5860 282° West 386 444 32,000  Level FlightAware ADS-B
Fri 08:15:56 PM 59.5680 72.4030 282° West 385 443 32,000  Level FlightAware ADS-B
Fri 08:16:41 PM 59.5840 72.2490 282° West 384 442 32,000  Level FlightAware ADS-B
Fri 08:17:21 PM 59.5980 72.1060 281° West 385 443 32,000  Level FlightAware ADS-B
Fri 08:18:01 PM 59.6110 71.9750 281° West 386 444 32,000  Level FlightAware ADS-B
Fri 08:18:46 PM 59.6260 71.8220 281° West 386 444 32,000  Level FlightAware ADS-B
Fri 08:19:21 PM 59.6380 71.7080 282° West 386 444 32,000  Level FlightAware ADS-B
Fri 08:20:01 PM 59.6530 71.5550 281° West 386 444 32,000  Level FlightAware ADS-B
Fri 08:20:41 PM 59.6640 71.4400 281° West 386 444 32,000  Level FlightAware ADS-B
Fri 08:21:31 PM 59.6800 71.2580 280° West 394 453 32,000  Level FlightAware ADS-B
Fri 08:23:26 PM 59.7190 70.8320 280° West 398 458 32,000  Level FlightAware ADS-B
Fri 08:24:11 PM 59.7340 70.6710 281° West 399 459 32,000  Level FlightAware ADS-B
Fri 08:24:41 PM 59.7430 70.5650 280° West 401 461 32,000  Level FlightAware ADS-B
Fri 08:25:26 PM 59.7550 70.4140 279° West 401 461 32,000  Level FlightAware ADS-B
Fri 08:26:16 PM 59.7680 70.2590 280° West 401 461 32,000  Level FlightAware ADS-B
Fri 08:26:56 PM 59.7770 70.1350 278° West 401 461 32,000  Level FlightAware ADS-B
Fri 08:27:41 PM 59.7880 70.0490 284° West 32,000  Level FlightAware ADS-B
Fri 08:28:01 PM 59.7940 69.9690 279° West 396 456 32,000  Level FlightAware ADS-B
Fri 08:28:51 PM 59.8180 69.6730 279° West 32,000  Level FlightAware ADS-B
Fri 08:29:21 PM 59.8280 69.5570 280° West 401 461 32,000  Level FlightAware ADS-B
Fri 08:30:01 PM 59.8280 69.5550 270° West 32,000  Level FlightAware ADS-B
Fri 08:30:31 PM 59.8280 69.5570 90° East 404 465 32,000  Level FlightAware ADS-B
Fri 08:31:31 PM 59.8340 69.4720 278° West 406 467 32,000  Level FlightAware ADS-B
Fri 08:32:21 PM 59.8790 68.9020 279° West 409 471 32,000  Level FlightAware ADS-B
Fri 08:33:01 PM 59.8880 68.7760 278° West 409 471 32,000  Level FlightAware ADS-B
Fri 08:33:41 PM 59.8960 68.6490 277° West 409 471 32,000  Level FlightAware ADS-B
Fri 08:34:21 PM 59.9050 68.5220 278° West 409 471 32,000  Level FlightAware ADS-B
Fri 08:35:06 PM 59.8900 68.7460 98° East 412 474 32,000  Level FlightAware ADS-B
Fri 08:36:01 PM 59.8860 68.8000 98° East 414 476 32,000  Level FlightAware ADS-B
Fri 08:36:46 PM 59.9490 67.9050 278° West 414 476 32,000  Level FlightAware ADS-B
Fri 08:37:41 PM 59.9610 67.7400 278° West 414 476 32,000  Level FlightAware ADS-B
Fri 08:38:31 PM 59.9520 67.8630 98° East 415 478 32,000  Level FlightAware ADS-B
Fri 08:39:31 PM 59.9820 67.4040 278° West 415 478 32,000  Level FlightAware ADS-B
Fri 08:40:11 PM 59.9900 67.2750 277° West 415 478 32,000  Level FlightAware ADS-B
Fri 08:40:51 PM 59.9980 67.1450 277° West 415 478 32,000  Level FlightAware ADS-B
Fri 08:41:41 PM 60.0070 66.9830 276° West 415 478 32,000  Level FlightAware ADS-B
Fri 08:42:21 PM 60.0150 66.8530 277° West 415 478 32,000  Level FlightAware ADS-B
Fri 08:43:01 PM 60.0230 66.7240 277° West 415 478 32,000  Level FlightAware ADS-B
Fri 08:43:56 PM 60.0470 66.2880 276° West 424 488 32,000  Level FlightAware ADS-B
Fri 08:44:41 PM 60.0550 66.1320 276° West 423 487 32,000  Level FlightAware ADS-B
Fri 08:45:16 PM 60.0600 66.0390 276° West 423 487 32,000  Level FlightAware ADS-B
Fri 08:46:01 PM 60.0660 65.9010 275° West 422 486 32,000  Level FlightAware ADS-B
Fri 08:46:41 PM 60.0720 65.7680 275° West 422 486 32,000  Level FlightAware ADS-B
Fri 08:47:31 PM 60.0790 65.6020 275° West 422 486 32,000  Level FlightAware ADS-B
Fri 08:48:11 PM 60.0850 65.4700 275° West 422 486 32,000  Level FlightAware ADS-B
Fri 08:48:51 PM 60.0910 65.3370 275° West 422 486 32,000  Level FlightAware ADS-B
Fri 08:49:36 PM 60.1060 65.0740 277° West 421 484 32,000  Level FlightAware ADS-B
Fri 08:50:16 PM 60.1120 64.9420 275° West 421 484 32,000  Level FlightAware ADS-B
Fri 08:50:56 PM 60.1180 64.8100 275° West 421 484 32,000  Level FlightAware ADS-B
Fri 08:51:36 PM 60.1240 64.6770 275° West 421 484 32,000  Level FlightAware ADS-B
Fri 08:52:16 PM 60.1290 64.5450 274° West 421 484 32,000  Level FlightAware ADS-B
Fri 08:53:06 PM 60.1360 64.3790 275° West 421 484 32,000  Level FlightAware ADS-B
Fri 08:53:46 PM 60.1420 64.2470 275° West 421 484 32,000  Level FlightAware ADS-B
Fri 08:54:26 PM 60.1480 64.1140 275° West 421 484 32,000  Level FlightAware ADS-B
Fri 08:55:06 PM 60.1540 63.9820 275° West 421 484 32,000  Level FlightAware ADS-B
Fri 08:55:46 PM 60.1600 63.8490 275° West 421 484 32,000  Level FlightAware ADS-B
Fri 08:56:36 PM 60.1670 63.6830 275° West 421 484 32,000  Level FlightAware ADS-B
Fri 08:57:16 PM 60.1730 63.5510 275° West 421 484 32,000  Level FlightAware ADS-B
Fri 08:57:56 PM 60.1780 63.4180 274° West 421 484 32,000  Level FlightAware ADS-B
Fri 08:58:36 PM 60.1840 63.2850 275° West 421 484 32,000  Level FlightAware ADS-B
Fri 09:01:00 PM 60.2147 62.7169 276° West  Level Estimated
Fri 09:02:00 PM 60.2267 62.4799 276° West  Level Estimated
Fri 09:03:00 PM 60.2384 62.2428 276° West  Level Estimated
Fri 09:04:00 PM 60.2496 62.0054 276° West  Level Estimated
Fri 09:05:00 PM 60.2604 61.7679 275° West  Level Estimated
Fri 09:06:00 PM 60.2707 61.5303 275° West  Level Estimated
Fri 09:07:00 PM 60.2807 61.2925 275° West  Level Estimated
Fri 09:08:00 PM 60.2902 61.0546 275° West  Level Estimated
Fri 09:09:00 PM 60.2993 60.8165 275° West  Level Estimated
Fri 09:09:11 PM 60.1290 60.3800 275° West 427 491 32,000  Level FlightAware ADS-B
Fri 09:09:51 PM 60.1270 60.2310 269° West 427 491 32,000  Level FlightAware ADS-B
Fri 09:10:36 PM 60.1240 60.0490 268° West 428 493 32,000  Level FlightAware ADS-B
Fri 09:11:16 PM 60.1210 59.8550 268° West 429 494 32,000  Level FlightAware ADS-B
Fri 09:11:56 PM 60.1180 59.7190 268° West 429 494 32,000  Level FlightAware ADS-B
Fri 09:12:41 PM 60.1150 59.5510 268° West 429 494 32,000  Level FlightAware ADS-B
Fri 09:13:16 PM 60.1120 59.4240 267° West 429 494 32,000  Level FlightAware ADS-B
Fri 09:14:16 PM 60.1070 59.1600 268° West 430 495 32,000  Level FlightAware ADS-B
Fri 09:15:01 PM 60.1020 58.9850 267° West 431 496 32,000  Level FlightAware ADS-B
Fri 09:15:41 PM 60.0990 58.8310 268° West 431 496 32,000  Level FlightAware ADS-B
Fri 09:16:26 PM 60.0940 58.6560 267° West 434 499 32,000  Level FlightAware ADS-B
Fri 09:17:06 PM 60.0900 58.4940 267° West 435 501 32,000  Level FlightAware ADS-B
Fri 09:17:41 PM 60.0860 58.3610 267° West 434 499 32,000  Level FlightAware ADS-B
Fri 09:18:31 PM 60.0790 58.1580 266° West 435 501 32,000  Level FlightAware ADS-B
Fri 09:19:11 PM 60.0750 58.0300 266° West 436 502 32,000  Level FlightAware ADS-B
Fri 09:19:51 PM 60.0680 57.8410 266° West 437 503 32,000  Level FlightAware ADS-B
Fri 09:20:51 PM 60.0590 57.5790 266° West 438 504 32,000  Level FlightAware ADS-B
Fri 09:21:31 PM 60.0540 57.4350 266° West 438 504 32,000  Level FlightAware ADS-B
Fri 09:22:11 PM 60.0480 57.2770 266° West 436 502 32,000  Level FlightAware ADS-B
Fri 09:22:51 PM 60.0410 57.0960 266° West 435 501 32,000  Level FlightAware ADS-B
Fri 09:23:31 PM 60.0350 56.9390 266° West 435 501 32,000  Level FlightAware ADS-B
Fri 09:24:31 PM 60.0260 56.7120 266° West 436 502 32,000  Level FlightAware ADS-B
Fri 09:25:16 PM 60.0180 56.5300 265° West 436 502 32,000  Level FlightAware ADS-B
Fri 09:25:51 PM 60.0120 56.3790 266° West 437 503 32,000 776 Level FlightAware ADS-B
Fri 09:26:41 PM 60.0030 56.1810 265° West 437 503 33,100 1,333 Climbing FlightAware ADS-B
Fri 09:27:21 PM 59.9960 56.0280 265° West 438 504 34,000 600 Climbing FlightAware ADS-B
Fri 09:28:11 PM 59.9860 55.8270 264° West 438 504 34,000  Level FlightAware ADS-B
Fri 09:29:01 PM 59.9760 55.6310 264° West 439 505 34,000  Level FlightAware ADS-B
Fri 09:29:31 PM 59.9710 55.5120 265° West 438 504 34,000  Level FlightAware ADS-B
Fri 09:30:21 PM 59.9590 55.3000 264° West 438 504 34,000  Level FlightAware ADS-B
Fri 09:31:01 PM 59.9510 55.1380 264° West 439 505 34,000  Level FlightAware ADS-B
Fri 09:31:46 PM 59.9410 54.9640 264° West 439 505 34,000  Level FlightAware ADS-B
Fri 09:32:31 PM 59.9310 54.7850 264° West 439 505 34,000  Level FlightAware ADS-B
Fri 09:33:11 PM 59.9220 54.6170 264° West 439 505 34,000  Level FlightAware ADS-B
Fri 09:33:46 PM 59.9140 54.4750 264° West 440 506 34,000  Level FlightAware ADS-B
Fri 09:34:36 PM 59.9020 54.2830 263° West 440 506 34,000  Level FlightAware ADS-B
Fri 09:35:11 PM 59.8930 54.1320 263° West 440 506 34,000  Level FlightAware ADS-B
Fri 09:35:51 PM 59.8830 53.9680 263° West 440 506 34,000  Level FlightAware ADS-B
Fri 09:36:31 PM 59.8730 53.8200 262° West 441 507 34,000  Level FlightAware ADS-B
Fri 09:37:31 PM 59.8580 53.5840 263° West 441 507 34,000  Level FlightAware ADS-B
Fri 09:38:21 PM 59.8450 53.3870 263° West 442 509 34,000  Level FlightAware ADS-B
Fri 09:39:01 PM 59.8330 53.2110 262° West 442 509 34,000  Level FlightAware ADS-B
Fri 09:39:41 PM 59.8220 53.0460 263° West 443 510 34,000  Level FlightAware ADS-B
Fri 09:40:26 PM 59.8100 52.8860 262° West 444 511 34,000  Level FlightAware ADS-B
Fri 09:41:06 PM 59.7980 52.7210 262° West 444 511 34,000  Level FlightAware ADS-B
Fri 09:41:51 PM 59.7840 52.5240 262° West 444 511 34,000  Level FlightAware ADS-B
Fri 09:42:26 PM 59.7730 52.3850 261° West 444 511 34,000  Level FlightAware ADS-B
Fri 09:43:21 PM 59.7590 52.1940 262° West 444 511 34,000  Level FlightAware ADS-B
Fri 09:44:06 PM 59.7440 52.0040 261° West 444 511 34,000  Level FlightAware ADS-B
Fri 09:44:46 PM 59.7240 51.8230 258° West 443 510 34,000  Level FlightAware ADS-B
Fri 09:45:31 PM 59.7070 51.6500 259° West 443 510 34,000  Level FlightAware ADS-B
Fri 09:46:16 PM 59.6890 51.4840 258° West 443 510 34,000  Level FlightAware ADS-B
Fri 09:47:11 PM 59.6650 51.2470 259° West 444 511 34,000  Level FlightAware ADS-B
Fri 09:47:46 PM 59.6510 51.1150 258° West 445 512 34,000  Level FlightAware ADS-B
Fri 09:48:31 PM 59.6340 50.9560 258° West 445 512 34,000  Level FlightAware ADS-B
Fri 09:49:11 PM 59.6150 50.7820 258° West 447 514 34,000  Level FlightAware ADS-B
Fri 09:49:56 PM 59.5940 50.5940 258° West 448 516 34,000  Level FlightAware ADS-B
Fri 09:50:41 PM 59.5750 50.4240 258° West 448 516 34,000  Level FlightAware ADS-B
Fri 09:51:16 PM 59.5600 50.2950 257° West 448 516 34,000  Level FlightAware ADS-B
Fri 09:51:56 PM 59.5400 50.1110 258° West 447 514 34,000  Level FlightAware ADS-B
Fri 09:52:41 PM 59.5220 49.9590 257° West 447 514 34,000  Level FlightAware ADS-B
Fri 09:53:21 PM 59.5060 49.8240 257° West 447 514 34,000  Level FlightAware ADS-B
Fri 09:54:11 PM 59.4860 49.6550 257° West 447 514 34,000  Level FlightAware ADS-B
Fri 09:54:51 PM 59.4700 49.5200 257° West 447 514 34,000  Level FlightAware ADS-B
Fri 09:55:31 PM 59.4540 49.3850 257° West 447 514 34,000  Level FlightAware ADS-B
Fri 09:56:11 PM 59.4380 49.2510 257° West 447 514 34,000  Level FlightAware ADS-B
Fri 09:56:51 PM 59.4230 49.1160 258° West 447 514 34,000  Level FlightAware ADS-B
Fri 09:57:41 PM 59.4030 48.9480 257° West 447 514 34,000  Level FlightAware ADS-B
Fri 09:58:21 PM 59.3870 48.8130 257° West 447 514 34,000  Level FlightAware ADS-B
Fri 09:59:01 PM 59.3710 48.6790 257° West 447 514 34,000  Level FlightAware ADS-B
Fri 09:59:51 PM 59.3510 48.5110 257° West 447 514 34,000  Level FlightAware ADS-B
Fri 10:00:31 PM 59.3350 48.3760 257° West 447 514 34,000  Level FlightAware ADS-B
Fri 10:01:11 PM 59.3200 48.2420 258° West 447 514 34,000  Level FlightAware ADS-B
Fri 10:01:51 PM 59.3040 48.1080 257° West 447 514 34,000  Level FlightAware ADS-B
Fri 10:04:00 PM 59.2816 47.6118 265° West  Level Estimated
Fri 10:05:00 PM 59.2705 47.3812 265° West  Level Estimated
Fri 10:06:00 PM 59.2590 47.1507 265° West  Level Estimated
Fri 10:07:00 PM 59.2472 46.9205 264° West  Level Estimated
Fri 10:08:00 PM 59.2349 46.6904 264° West  Level Estimated
Fri 10:09:00 PM 59.2222 46.4604 264° West  Level Estimated
Fri 10:09:36 PM 58.9830 45.9330 264° West 457 526 34,000  Level FlightAware ADS-B
Fri 10:11:06 PM 58.9280 45.5710 254° West 459 528 34,000  Level FlightAware ADS-B
Fri 10:13:00 PM 58.9020 45.1385 264° West  Level Estimated
Fri 10:14:00 PM 58.8877 44.9111 263° West  Level Estimated
Fri 10:15:00 PM 58.8731 44.6839 263° West  Level Estimated
Fri 10:15:41 PM 58.7550 44.4960 263° West 462 532 34,000  Level FlightAware ADS-B
Fri 10:16:21 PM 58.7330 44.3630 252° West 462 532 34,000  Level FlightAware ADS-B
Fri 10:17:01 PM 58.7100 44.2290 252° West 462 532 34,000  Level FlightAware ADS-B
Fri 10:17:41 PM 58.6880 44.0960 252° West 462 532 34,000  Level FlightAware ADS-B
Fri 10:19:11 PM 58.6170 43.6730 252° West 461 531 34,000  Level FlightAware ADS-B
Fri 10:21:00 PM 58.5878 43.2642 262° West  Level Estimated
Fri 10:22:00 PM 58.5712 43.0395 262° West  Level Estimated
Fri 10:23:00 PM 58.5542 42.8150 262° West  Level Estimated
Fri 10:24:00 PM 58.5368 42.5907 262° West  Level Estimated
Fri 10:25:00 PM 58.5191 42.3666 261° West  Level Estimated
Fri 10:26:00 PM 58.5009 42.1428 261° West  Level Estimated
Fri 10:27:00 PM 58.4823 41.9192 261° West  Level Estimated
Fri 10:28:00 PM 58.4634 41.6958 261° West  Level Estimated
Fri 10:29:00 PM 58.4441 41.4727 261° West  Level Estimated
Fri 10:30:00 PM 58.4243 41.2498 261° West  Level Estimated
Fri 10:30:06 PM 58.1490 41.1330 261° West 470 541 34,000  Level FlightAware ADS-B
Fri 10:30:41 PM 58.1210 40.9920 249° West 470 541 34,000  Level FlightAware ADS-B
Fri 10:31:26 PM 58.0880 40.8250 250° West 471 542 34,000  Level FlightAware ADS-B
Fri 10:32:11 PM 58.0520 40.6490 249° West 471 542 34,000  Level FlightAware ADS-B
Fri 10:32:56 PM 58.0170 40.4750 249° West 471 542 34,000  Level FlightAware ADS-B
Fri 10:33:36 PM 57.9870 40.3260 249° West 470 541 34,000  Level FlightAware ADS-B
Fri 10:34:21 PM 57.9510 40.1520 249° West 472 543 34,000  Level FlightAware ADS-B
Fri 10:35:01 PM 57.9200 40.0030 249° West 471 542 34,000  Level FlightAware ADS-B
Fri 10:35:41 PM 57.8890 39.8530 249° West 472 543 34,000  Level FlightAware ADS-B
Fri 10:36:26 PM 57.8530 39.6820 248° West 473 544 34,000  Level FlightAware ADS-B
Fri 10:37:06 PM 57.8190 39.5260 248° West 471 542 34,000  Level FlightAware ADS-B
Fri 10:37:51 PM 57.7830 39.3560 248° West 472 543 34,000  Level FlightAware ADS-B
Fri 10:38:31 PM 57.7390 39.2160 240° Southwest 477 549 34,000  Level FlightAware ADS-B
Fri 10:39:11 PM 57.6900 39.0930 233° Southwest 478 550 34,000  Level FlightAware ADS-B
Fri 10:39:56 PM 57.6250 38.9410 231° Southwest 478 550 34,000  Level FlightAware ADS-B
Fri 10:40:36 PM 57.5700 38.8090 232° Southwest 480 552 34,000  Level FlightAware ADS-B
Fri 10:41:21 PM 57.5080 38.6630 232° Southwest 484 557 34,000  Level FlightAware ADS-B
Fri 10:42:01 PM 57.4530 38.5320 232° Southwest 489 563 34,000  Level FlightAware ADS-B
Fri 10:42:41 PM 57.3970 38.4010 232° Southwest 489 563 34,000  Level FlightAware ADS-B
Fri 10:43:26 PM 57.3340 38.2550 231° Southwest 488 562 34,000  Level FlightAware ADS-B
Fri 10:44:11 PM 57.2730 38.1080 233° Southwest 487 560 34,000  Level FlightAware ADS-B
Fri 10:44:51 PM 57.2170 37.9730 233° Southwest 490 564 34,000  Level FlightAware ADS-B
Fri 10:45:31 PM 57.1640 37.8460 232° Southwest 490 564 34,000  Level FlightAware ADS-B
Fri 10:46:16 PM 57.1060 37.6860 236° Southwest 484 557 34,000  Level FlightAware ADS-B
Fri 10:46:56 PM 57.0720 37.5370 247° West 480 552 34,000  Level FlightAware ADS-B
Fri 10:47:41 PM 57.0360 37.3630 249° West 483 556 34,000  Level FlightAware ADS-B
Fri 10:48:21 PM 57.0050 37.2110 250° West 483 556 34,000  Level FlightAware ADS-B
Fri 10:49:01 PM 56.9730 37.0600 249° West 485 558 34,000  Level FlightAware ADS-B
Fri 10:49:46 PM 56.9370 36.8880 249° West 484 557 34,000  Level FlightAware ADS-B
Fri 10:50:26 PM 56.9040 36.7330 249° West 484 557 34,000  Level FlightAware ADS-B
Fri 10:51:06 PM 56.8730 36.5850 249° West 484 557 34,000  Level FlightAware ADS-B
Fri 10:51:51 PM 56.8360 36.4120 249° West 484 557 34,000  Level FlightAware ADS-B
Fri 10:52:31 PM 56.8050 36.2600 250° West 483 556 34,000  Level FlightAware ADS-B
Fri 10:53:16 PM 56.7700 36.0920 249° West 483 556 34,000  Level FlightAware ADS-B
Fri 10:53:56 PM 56.7370 35.9390 249° West 481 554 34,000  Level FlightAware ADS-B
Fri 10:54:36 PM 56.7040 35.7860 249° West 481 554 34,000  Level FlightAware ADS-B
Fri 10:55:21 PM 56.6680 35.6170 249° West 479 551 34,000  Level FlightAware ADS-B
Fri 10:56:01 PM 56.6350 35.4690 248° West 479 551 34,000  Level FlightAware ADS-B
Fri 10:56:46 PM 56.5980 35.3000 248° West 478 550 34,000  Level FlightAware ADS-B
Fri 10:57:26 PM 56.5660 35.1520 249° West 478 550 34,000  Level FlightAware ADS-B
Fri 10:58:06 PM 56.5320 35.0030 248° West 478 550 34,000  Level FlightAware ADS-B
Fri 10:58:51 PM 56.4880 34.8420 244° Southwest 481 554 34,000  Level FlightAware ADS-B
Fri 10:59:31 PM 56.4450 34.7080 240° Southwest 479 551 34,000  Level FlightAware ADS-B
Fri 11:00:16 PM 56.3940 34.5510 240° Southwest 479 551 34,000  Level FlightAware ADS-B
Fri 11:00:56 PM 56.3490 34.4120 240° Southwest 479 551 34,000  Level FlightAware ADS-B
Fri 11:01:36 PM 56.3040 34.2730 240° Southwest 480 552 34,000  Level FlightAware ADS-B
Fri 11:02:21 PM 56.2570 34.1270 240° Southwest 479 551 34,000  Level FlightAware ADS-B
Fri 11:03:01 PM 56.2090 33.9850 239° Southwest 478 550 34,000  Level FlightAware ADS-B
Fri 11:03:41 PM 56.1630 33.8490 239° Southwest 476 548 34,000  Level FlightAware ADS-B
Fri 11:04:26 PM 56.1120 33.6970 239° Southwest 476 548 34,000  Level FlightAware ADS-B
Fri 11:05:06 PM 56.0670 33.5640 239° Southwest 475 547 34,000  Level FlightAware ADS-B
Fri 11:05:51 PM 56.0150 33.4120 239° Southwest 474 545 34,000  Level FlightAware ADS-B
Fri 11:06:31 PM 55.9740 33.2920 239° Southwest 472 543 34,000  Level FlightAware ADS-B
Fri 11:07:11 PM 55.9250 33.1460 239° Southwest 470 541 34,000  Level FlightAware ADS-B
Fri 11:07:56 PM 55.8770 33.0050 239° Southwest 469 540 34,000  Level FlightAware ADS-B
Fri 11:08:36 PM 55.8440 32.8550 249° West 464 534 34,000  Level FlightAware ADS-B
Fri 11:09:21 PM 55.8220 32.6980 256° West 462 532 34,000  Level FlightAware ADS-B
Fri 11:09:56 PM 55.8060 32.5690 258° West 462 532 34,000  Level FlightAware ADS-B
Fri 11:10:41 PM 55.7840 32.3970 257° West 463 533 34,000  Level FlightAware ADS-B
Fri 11:11:26 PM 55.7620 32.2280 257° West 463 533 34,000  Level FlightAware ADS-B
Fri 11:12:11 PM 55.7410 32.0760 256° West 462 532 34,000  Level FlightAware ADS-B
Fri 11:13:01 PM 55.7180 31.9080 256° West 462 532 34,000  Level FlightAware ADS-B
Fri 11:13:41 PM 55.6960 31.7450 257° West 462 532 34,000  Level FlightAware ADS-B
Fri 11:14:21 PM 55.6780 31.6200 256° West 462 532 34,000  Level FlightAware ADS-B
Fri 11:15:11 PM 55.6560 31.4640 256° West 462 532 34,000  Level FlightAware ADS-B
Fri 11:15:51 PM 55.6390 31.3390 257° West 462 532 34,000  Level FlightAware ADS-B
Fri 11:16:31 PM 55.6210 31.2140 256° West 462 532 34,000  Level FlightAware ADS-B
Fri 11:17:11 PM 55.6030 31.0890 256° West 462 532 34,000  Level FlightAware ADS-B
Fri 11:17:51 PM 55.5860 30.9640 257° West 462 532 34,000  Level FlightAware ADS-B
Fri 11:18:21 PM 55.5730 30.8710 256° West 462 532 34,000  Level FlightAware ADS-B
Fri 11:19:01 PM 55.5550 30.7460 256° West 462 532 34,000  Level FlightAware ADS-B
Fri 11:19:41 PM 55.5370 30.6210 256° West 462 532 34,000  Level FlightAware ADS-B
Fri 11:20:31 PM 55.5150 30.4660 256° West 462 532 34,000  Level FlightAware ADS-B
Fri 11:21:11 PM 55.4530 30.1100 253° West 457 526 34,000  Level FlightAware ADS-B
Fri 11:21:56 PM 55.4290 29.9490 255° West 457 526 34,000  Level FlightAware ADS-B
Fri 11:22:36 PM 55.4060 29.8010 255° West 457 526 34,000  Level FlightAware ADS-B
Fri 11:23:16 PM 55.3830 29.6590 254° West 456 525 34,000  Level FlightAware ADS-B
Fri 11:24:01 PM 55.3580 29.4990 255° West 456 525 34,000  Level FlightAware ADS-B
Fri 11:24:41 PM 55.3350 29.3550 254° West 459 528 34,000  Level FlightAware ADS-B
Fri 11:25:26 PM 55.3080 29.1920 254° West 458 527 34,000  Level FlightAware ADS-B
Fri 11:26:06 PM 55.2850 29.0480 254° West 458 527 34,000  Level FlightAware ADS-B
Fri 11:26:46 PM 55.2620 28.9090 254° West 458 527 34,000  Level FlightAware ADS-B
Fri 11:27:31 PM 55.2360 28.7510 254° West 459 528 34,000  Level FlightAware ADS-B
Fri 11:28:11 PM 55.2120 28.6070 254° West 459 528 34,000  Level FlightAware ADS-B
Fri 11:28:51 PM 55.1880 28.4650 254° West 459 528 34,000  Level FlightAware ADS-B
Fri 11:29:36 PM 55.1600 28.3030 253° West 461 531 34,000  Level FlightAware ADS-B
Fri 11:30:16 PM 55.1360 28.1610 254° West 462 532 34,000  Level FlightAware ADS-B
Fri 11:31:01 PM 55.1090 28.0030 253° West 464 534 34,000  Level FlightAware ADS-B
Fri 11:31:46 PM 55.0810 27.8400 253° West 464 534 34,000  Level FlightAware ADS-B
Fri 11:32:26 PM 55.0560 27.6970 253° West 462 532 34,000  Level FlightAware ADS-B
Fri 11:33:11 PM 55.0280 27.5400 253° West 462 532 34,000  Level FlightAware ADS-B
Fri 11:33:51 PM 55.0020 27.3970 252° West 461 531 34,000  Level FlightAware ADS-B
Fri 11:34:31 PM 54.9760 27.2520 253° West 461 531 34,000  Level FlightAware ADS-B
Fri 11:35:16 PM 54.9480 27.0960 253° West 461 531 34,000  Level FlightAware ADS-B
Fri 11:35:56 PM 54.9220 26.9550 252° West 461 531 34,000  Level FlightAware ADS-B
Fri 11:36:41 PM 54.8940 26.7990 253° West 462 532 34,000  Level FlightAware ADS-B
Fri 11:37:21 PM 54.8670 26.6560 252° West 461 531 34,000  Level FlightAware ADS-B
Fri 11:38:06 PM 54.8370 26.4950 252° West 459 528 34,000  Level FlightAware ADS-B
Fri 11:38:46 PM 54.8100 26.3540 252° West 462 532 34,000  Level FlightAware ADS-B
Fri 11:39:26 PM 54.7840 26.2160 252° West 462 532 34,000  Level FlightAware ADS-B
Fri 11:40:11 PM 54.7550 26.0630 252° West 463 533 34,000  Level FlightAware ADS-B
Fri 11:40:51 PM 54.7280 25.9220 252° West 461 531 34,000  Level FlightAware ADS-B
Fri 11:41:31 PM 54.7010 25.7830 251° West 462 532 34,000  Level FlightAware ADS-B
Fri 11:42:16 PM 54.6690 25.6240 251° West 461 531 34,000  Level FlightAware ADS-B
Fri 11:42:56 PM 54.6400 25.4840 250° West 460 529 34,000  Level FlightAware ADS-B
Fri 11:43:41 PM 54.6100 25.3350 251° West 460 529 34,000  Level FlightAware ADS-B
Fri 11:44:21 PM 54.5810 25.1950 250° West 459 528 34,000  Level FlightAware ADS-B
Fri 11:45:01 PM 54.5520 25.0580 250° West 460 529 34,000  Level FlightAware ADS-B
Fri 11:45:46 PM 54.5210 24.9060 251° West 457 526 34,000  Level FlightAware ADS-B
Fri 11:46:26 PM 54.4910 24.7640 250° West 455 524 34,000  Level FlightAware ADS-B
Fri 11:47:11 PM 54.4600 24.6190 250° West 454 522 34,000  Level FlightAware ADS-B
Fri 11:47:51 PM 54.4300 24.4770 250° West 452 520 34,000  Level FlightAware ADS-B
Fri 11:48:31 PM 54.4020 24.3460 250° West 453 521 34,000  Level FlightAware ADS-B
Fri 11:49:16 PM 54.3680 24.1920 249° West 453 521 34,000  Level FlightAware ADS-B
Fri 11:49:56 PM 54.3390 24.0580 250° West 451 519 34,000  Level FlightAware ADS-B
Fri 11:50:41 PM 54.3060 23.9070 250° West 449 517 34,000  Level FlightAware ADS-B
Fri 11:51:21 PM 54.2770 23.7740 250° West 449 517 34,000  Level FlightAware ADS-B
Fri 11:52:01 PM 54.2470 23.6410 249° West 449 517 34,000  Level FlightAware ADS-B
Fri 11:52:41 PM 54.2170 23.5090 249° West 449 517 34,000  Level FlightAware ADS-B
Fri 11:53:26 PM 54.1850 23.3660 249° West 452 520 34,000  Level FlightAware ADS-B
Fri 11:54:06 PM 54.1540 23.2320 248° West 455 524 34,000  Level FlightAware ADS-B
Fri 11:54:51 PM 54.1210 23.0770 250° West 454 522 34,000  Level FlightAware ADS-B
Fri 11:55:31 PM 54.0940 22.9430 251° West 456 525 34,000  Level FlightAware ADS-B
Fri 11:56:16 PM 54.0630 22.7900 251° West 461 531 34,000  Level FlightAware ADS-B
Fri 11:56:56 PM 54.0350 22.6550 251° West 460 529 34,000  Level FlightAware ADS-B
Fri 11:57:36 PM 54.0070 22.5190 251° West 459 528 34,000  Level FlightAware ADS-B
Fri 11:58:21 PM 53.9750 22.3620 251° West 458 527 34,000  Level FlightAware ADS-B
Fri 11:59:01 PM 53.9460 22.2280 250° West 458 527 34,000  Level FlightAware ADS-B
Fri 11:59:41 PM 53.9170 22.0920 250° West 457 526 34,000  Level FlightAware ADS-B
Sat 12:00:26 AM 53.8860 21.9460 250° West 454 522 34,000  Level FlightAware ADS-B
Sat 12:01:06 AM 53.8580 21.8130 250° West 454 522 34,000  Level FlightAware ADS-B
Sat 12:01:51 AM 53.8240 21.6570 250° West 458 527 34,000  Level FlightAware ADS-B
Sat 12:02:31 AM 53.7950 21.5250 250° West 457 526 34,000  Level FlightAware ADS-B
Sat 12:03:11 AM 53.7660 21.3930 250° West 457 526 34,000  Level FlightAware ADS-B
Sat 12:03:56 AM 53.7330 21.2430 250° West 456 525 34,000  Level FlightAware ADS-B
Sat 12:04:36 AM 53.7040 21.1120 250° West 456 525 34,000  Level FlightAware ADS-B
Sat 12:05:21 AM 53.6700 20.9590 249° West 456 525 34,000  Level FlightAware ADS-B
Sat 12:06:01 AM 53.6390 20.8250 249° West 457 526 34,000  Level FlightAware ADS-B
Sat 12:06:41 AM 53.6090 20.6920 249° West 460 529 34,000  Level FlightAware ADS-B
Sat 12:07:26 AM 53.5750 20.5440 249° West 463 533 34,000  Level FlightAware ADS-B
Sat 12:08:06 AM 53.5450 20.4130 249° West 463 533 34,000  Level FlightAware ADS-B
Sat 12:08:46 AM 53.5140 20.2770 249° West 463 533 34,000  Level FlightAware ADS-B
Sat 12:09:31 AM 53.4780 20.1240 248° West 462 532 34,000  Level FlightAware ADS-B
Sat 12:10:16 AM 53.4440 19.9780 249° West 461 531 34,000  Level FlightAware ADS-B
Sat 12:10:56 AM 53.4120 19.8450 248° West 458 527 34,000  Level FlightAware ADS-B
Sat 12:11:41 AM 53.3770 19.6950 249° West 456 525 34,000  Level FlightAware ADS-B
Sat 12:12:21 AM 53.3450 19.5640 248° West 456 525 34,000  Level FlightAware ADS-B
Sat 12:13:06 AM 53.3100 19.4190 248° West 454 522 34,000  Level FlightAware ADS-B
Sat 12:13:46 AM 53.2790 19.2900 248° West 455 524 34,000  Level FlightAware ADS-B
Sat 12:14:26 AM 53.2480 19.1600 248° West 457 526 34,000  Level FlightAware ADS-B
Sat 12:15:11 AM 53.2110 19.0110 248° West 458 527 34,000  Level FlightAware ADS-B
Sat 12:15:51 AM 53.1790 18.8810 248° West 457 526 34,000  Level FlightAware ADS-B
Sat 12:16:36 AM 53.1430 18.7380 247° West 457 526 34,000  Level FlightAware ADS-B
Sat 12:17:16 AM 53.1110 18.6070 248° West 457 526 34,000  Level FlightAware ADS-B
Sat 12:17:56 AM 53.0780 18.4790 247° West 457 526 34,000  Level FlightAware ADS-B
Sat 12:18:41 AM 53.0420 18.3330 248° West 458 527 34,000  Level FlightAware ADS-B
Sat 12:19:21 AM 53.0070 18.1990 247° West 456 525 34,000  Level FlightAware ADS-B
Sat 12:20:01 AM 52.9740 18.0710 247° West 457 526 34,000  Level FlightAware ADS-B
Sat 12:20:46 AM 52.9380 17.9290 247° West 456 525 34,000  Level FlightAware ADS-B
Sat 12:21:26 AM 52.9050 17.8010 247° West 458 527 34,000  Level FlightAware ADS-B
Sat 12:22:06 AM 52.8720 17.6760 246° West 459 528 34,000  Level FlightAware ADS-B
Sat 12:22:51 AM 52.8330 17.5260 247° West 461 531 34,000  Level FlightAware ADS-B
Sat 12:23:31 AM 52.7990 17.3990 246° West 459 528 34,000  Level FlightAware ADS-B
Sat 12:24:16 AM 52.7620 17.2580 247° West 457 526 34,000  Level FlightAware ADS-B
Sat 12:24:56 AM 52.7280 17.1320 246° West 456 525 34,000  Level FlightAware ADS-B
Sat 12:25:41 AM 52.6880 16.9830 246° West 455 524 34,000  Level FlightAware ADS-B
Sat 12:26:21 AM 52.6550 16.8580 247° West 455 524 34,000  Level FlightAware ADS-B
Sat 12:27:01 AM 52.6200 16.7300 246° West 456 525 34,000  Level FlightAware ADS-B
Sat 12:27:46 AM 52.5820 16.5930 246° West 454 522 34,000  Level FlightAware ADS-B
Sat 12:28:26 AM 52.5470 16.4640 246° West 456 525 34,000  Level FlightAware ADS-B
Sat 12:29:11 AM 52.5090 16.3260 246° West 457 526 34,000  Level FlightAware ADS-B
Sat 12:29:51 AM 52.4720 16.1930 245° Southwest 459 528 34,000  Level FlightAware ADS-B
Sat 12:30:31 AM 52.4360 16.0660 245° Southwest 460 529 34,000  Level FlightAware ADS-B
Sat 12:31:16 AM 52.3980 15.9300 245° Southwest 461 531 34,000  Level FlightAware ADS-B
Sat 12:31:56 AM 52.3620 15.8040 245° Southwest 460 529 34,000  Level FlightAware ADS-B
Sat 12:32:41 AM 52.3210 15.6590 245° Southwest 459 528 34,000  Level FlightAware ADS-B
Sat 12:33:21 AM 52.2870 15.5400 245° Southwest 459 528 34,000  Level FlightAware ADS-B
Sat 12:34:01 AM 52.2490 15.4080 245° Southwest 461 531 34,000  Level FlightAware ADS-B
Sat 12:34:46 AM 52.2080 15.2660 245° Southwest 461 531 34,000  Level FlightAware ADS-B
Sat 12:35:26 AM 52.1730 15.1470 244° Southwest 460 529 34,000  Level FlightAware ADS-B
Sat 12:36:11 AM 52.1330 15.0100 245° Southwest 462 532 34,000  Level FlightAware ADS-B
Sat 12:36:51 AM 52.0940 14.8760 245° Southwest 463 533 34,000  Level FlightAware ADS-B
Sat 12:37:31 AM 52.0560 14.7490 244° Southwest 462 532 34,000  Level FlightAware ADS-B
Sat 12:38:11 AM 52.0240 14.6300 246° West 464 534 34,000  Level FlightAware ADS-B
Sat 12:38:56 AM 51.9840 14.4810 246° West 462 532 34,000  Level FlightAware ADS-B
Sat 12:39:36 AM 51.9500 14.3580 246° West 458 527 34,000  Level FlightAware ADS-B
Sat 12:40:21 AM 51.9100 14.2160 246° West 458 527 34,000  Level FlightAware ADS-B
Sat 12:41:01 AM 51.8750 14.0900 246° West 456 525 34,000  Level FlightAware ADS-B
Sat 12:41:41 AM 51.8410 13.9670 246° West 457 526 34,000  Level FlightAware ADS-B
Sat 12:42:31 AM 51.7990 13.8180 246° West 459 528 34,000  Level FlightAware ADS-B
Sat 12:43:06 AM 51.7670 13.7050 245° Southwest 460 529 34,000  Level FlightAware ADS-B
Sat 12:43:51 AM 51.7250 13.5600 245° Southwest 462 532 34,000  Level FlightAware ADS-B
Sat 12:44:31 AM 51.6900 13.4380 245° Southwest 463 533 34,000  Level FlightAware ADS-B
Sat 12:45:16 AM 51.6500 13.2980 245° Southwest 462 532 34,000  Level FlightAware ADS-B
Sat 12:45:56 AM 51.6160 13.1810 245° Southwest 459 528 34,000  Level FlightAware ADS-B
Sat 12:46:36 AM 51.5800 13.0560 245° Southwest 456 525 34,000  Level FlightAware ADS-B
Sat 12:47:16 AM 51.5440 12.9330 245° Southwest 456 525 34,000  Level FlightAware ADS-B
Sat 12:47:56 AM 51.5060 12.8050 245° Southwest 456 525 34,000  Level FlightAware ADS-B
Sat 12:48:46 AM 51.4600 12.6500 245° Southwest 457 526 34,000 -333 Level FlightAware ADS-B
Sat 12:49:26 AM 51.4230 12.5310 244° Southwest 453 521 33,500 -800 Descending FlightAware ADS-B
Sat 12:50:01 AM 51.3880 12.4320 240° Southwest 452 520 33,000 -1,271 Descending FlightAware ADS-B
Sat 12:50:51 AM 51.3370 12.2920 240° Southwest 436 502 31,700 -1,800 Descending FlightAware ADS-B
Sat 12:51:31 AM 51.2980 12.1850 240° Southwest 425 489 30,300 -2,118 Descending FlightAware ADS-B
Sat 12:52:16 AM 51.2530 12.0620 240° Southwest 415 478 28,700 -2,118 Descending FlightAware ADS-B
Sat 12:52:56 AM 51.2150 11.9560 240° Southwest 408 470 27,300 -2,025 Descending FlightAware ADS-B
Sat 12:53:36 AM 51.1820 11.8600 241° Southwest 399 459 26,000 -1,976 Descending FlightAware ADS-B
Sat 12:54:21 AM 51.1430 11.7390 243° Southwest 386 444 24,500 -1,875 Descending FlightAware ADS-B
Sat 12:54:56 AM 51.1170 11.6520 245° Southwest 379 436 23,500 -1,516 Descending FlightAware ADS-B
Sat 12:55:56 AM 51.0720 11.4970 245° Southwest 365 420 22,100 -857 Descending FlightAware ADS-B
Sat 12:56:41 AM 51.0390 11.3880 244° Southwest 369 425 22,000 -71 Descending FlightAware ADS-B
Sat 12:57:21 AM 51.0110 11.2940 245° Southwest 369 425 22,000  Level FlightAware ADS-B
Sat 12:58:01 AM 50.9800 11.1930 244° Southwest 371 427 22,000  Level FlightAware ADS-B
Sat 12:58:46 AM 50.9460 11.0830 244° Southwest 370 426 22,000  Level FlightAware ADS-B
Sat 12:59:21 AM 50.9210 11.0000 244° Southwest 371 427 22,000  Level FlightAware ADS-B
Sat 01:00:11 AM 50.8830 10.8760 244° Southwest 370 426 22,000 -400 Level FlightAware ADS-B
Sat 01:00:51 AM 50.8540 10.7820 244° Southwest 375 432 21,400 -1,125 Descending FlightAware ADS-B
Sat 01:01:31 AM 50.8240 10.6850 244° Southwest 364 419 20,500 -1,129 Descending FlightAware ADS-B
Sat 01:02:16 AM 50.7930 10.5840 244° Southwest 359 413 19,800 -1,200 Descending FlightAware ADS-B
Sat 01:02:56 AM 50.7620 10.4840 244° Southwest 356 410 18,800 -1,624 Descending FlightAware ADS-B
Sat 01:03:41 AM 50.7300 10.3830 243° Southwest 342 394 17,500 -1,400 Descending FlightAware ADS-B
Sat 01:04:26 AM 50.7010 10.2880 244° Southwest 336 387 16,700 -1,482 Descending FlightAware ADS-B
Sat 01:05:06 AM 50.6710 10.1960 243° Southwest 334 384 15,400 -1,875 Descending FlightAware ADS-B
Sat 01:05:46 AM 50.6440 10.1090 244° Southwest 332 382 14,200 -1,694 Descending FlightAware ADS-B
Sat 01:06:31 AM 50.6140 10.0160 243° Southwest 323 372 13,000 -1,650 Descending FlightAware ADS-B
Sat 01:07:06 AM 50.5890 9.9360 244° Southwest 318 366 12,000 -1,412 Descending FlightAware ADS-B
Sat 01:07:56 AM 50.5540 9.8270 243° Southwest 321 369 11,000 -750 Descending FlightAware ADS-B
Sat 01:08:26 AM 50.5350 9.7680 243° Southwest 311 358 11,000  Level FlightAware ADS-B
Sat 01:09:16 AM 50.5030 9.6680 243° Southwest 297 342 11,000  Level FlightAware ADS-B
Sat 01:09:56 AM 50.4780 9.5930 242° Southwest 292 336 11,000 -55 Level FlightAware ADS-B
Sat 01:11:06 AM 50.4190 9.4790 231° Southwest 296 341 10,900 -400 Descending FlightAware ADS-B
Sat 01:11:41 AM 50.3870 9.4210 229° Southwest 276 318 10,300 -720 Descending FlightAware ADS-B
Sat 01:12:21 AM 50.3550 9.3630 229° Southwest 252 290 10,000 -923 Descending FlightAware ADS-B
Sat 01:12:46 AM 50.3350 9.3290 227° Southwest 244 281 9,300 -1,543 Descending FlightAware ADS-B
Sat 01:13:31 AM 50.3030 9.2710 229° Southwest 238 274 8,200 -1,108 Descending FlightAware ADS-B
Sat 01:13:51 AM 50.2910 9.2490 230° Southwest 232 267 8,100 -1,091 Descending FlightAware ADS-B
Sat 01:14:26 AM 50.2650 9.2040 228° Southwest 218 251 7,200 -1,385 Descending FlightAware ADS-B
Sat 01:14:56 AM 50.2460 9.1690 230° Southwest 216 249 6,600 -1,091 Descending FlightAware ADS-B
Sat 01:15:21 AM 50.2320 9.1440 229° Southwest 206 237 6,200 -873 Descending FlightAware ADS-B
Sat 01:15:51 AM 50.2100 9.1060 228° Southwest 203 234 5,800 -873 Descending FlightAware ADS-B
Sat 01:16:16 AM 50.1960 9.0810 229° Southwest 203 234 5,400 -873 Descending FlightAware ADS-B
Sat 01:16:46 AM 50.1750 9.0440 228° Southwest 213 245 5,000 -436 Descending FlightAware ADS-B
Sat 01:17:11 AM 50.1600 9.0120 234° Southwest 201 231 5,000  Level FlightAware ADS-B
Sat 01:17:26 AM 50.1540 8.9920 245° Southwest 201 231 5,000  Level FlightAware ADS-B
Sat 01:17:56 AM 50.1450 8.9520 251° West 194 223 5,000  Level FlightAware ADS-B
Sat 01:18:26 AM 50.1360 8.9130 250° West 185 213 5,000  Level FlightAware ADS-B
Sat 01:18:46 AM 50.1300 8.8880 249° West 188 216 5,000  Level FlightAware ADS-B
Sat 01:19:21 AM 50.1200 8.8450 250° West 168 193 5,000 -400 Level FlightAware ADS-B
Sat 01:19:46 AM 50.1130 8.8180 248° West 165 190 4,600 -1,091 Descending FlightAware ADS-B
Sat 01:20:16 AM 50.1060 8.7840 252° West 164 189 4,000 -1,091 Descending FlightAware ADS-B
Sat 01:20:41 AM 50.0990 8.7570 248° West 152 175 3,600 -764 Descending FlightAware ADS-B
Sat 01:21:11 AM 50.0920 8.7290 249° West 138 159 3,300 -700 Descending FlightAware ADS-B
Sat 01:21:41 AM 50.0860 8.7020 251° West 131 151 2,900 -873 Descending FlightAware ADS-B
Sat 01:22:06 AM 50.0810 8.6790 251° West 130 150 2,500 -900 Descending FlightAware ADS-B
Sat 01:22:21 AM 50.0780 8.6700 243° Southwest 129 148 2,300 -667 Descending FlightAware ADS-B
Sat 01:22:51 AM 50.0720 8.6430 251° West 130 150 2,000 -764 Descending FlightAware ADS-B
Sat 01:23:16 AM 50.0660 8.6190 249° West 127 146 1,600 -764 Descending FlightAware ADS-B
Sat 01:23:46 AM 50.0600 8.5940 250° West 133 153 1,300 -720 Descending FlightAware ADS-B
Sat 01:24:06 AM 50.0550 8.5740 249° West 138 159 1,000 -400 Descending FlightAware ADS-B
Sat 01:24:31 AM 50.0510 8.5530 253° West 138 159 1,000  Level FlightAware ADS-B
Sat 01:27:00 AM 50.0264 8.5431 194° South  Level Estimated

Login

Don't have an account? Register now (free) for customized features, flight alerts, and more!